Time;durP1;ratioP1;P1;durP2;ratioP2;P2;SDS_P1;SDS_P2;PMS_P1;PMS_P2;Temp;Humidity;BMP_temperature;BMP_pressure;BME280_temperature;BME280_humidity;BME280_pressure;Samples;Min_cycle;Max_cycle;Signal;HPM_P1;HPM_P2
2022/08/14 00:00:08;;;;;;;;;11.00;9.33;;;;;26.10;29.31;100048.88;4912425;29;45391;-87
2022/08/14 00:02:34;;;;;;;;;10.67;9.33;;;;;26.03;29.14;100033.84;4897448;29;45433;-87
2022/08/14 00:04:59;;;;;;;;;8.33;8.33;;;;;26.03;28.92;100033.84;4913915;28;45314;-87
2022/08/14 00:07:25;;;;;;;;;9.67;9.67;;;;;26.01;29.35;100024.91;4896722;28;46640;-87
2022/08/14 00:09:50;;;;;;;;;8.67;8.67;;;;;25.99;29.40;100021.41;4898381;28;45797;-87
2022/08/14 00:12:19;;;;;;;;;7.33;7.33;;;;;25.94;28.57;100018.09;4914399;28;44789;-87
2022/08/14 00:14:44;;;;;;;;;8.33;8.33;;;;;25.94;28.49;100012.66;4898816;28;45492;-87
2022/08/14 00:17:10;;;;;;;;;10.33;7.00;;;;;25.96;28.99;100018.00;4896090;29;46754;-87
2022/08/14 00:19:36;;;;;;;;;7.33;7.33;;;;;25.91;28.67;100012.81;4948014;28;45393;-87
2022/08/14 00:22:02;;;;;;;;;7.33;7.33;;;;;25.92;28.25;100009.16;4916518;28;44764;-87
2022/08/14 00:24:28;;;;;;;;;7.67;6.67;;;;;25.86;28.58;99998.59;4900530;28;45164;-87
2022/08/14 00:26:55;;;;;;;;;6.33;6.00;;;;;25.90;28.44;100002.91;4915677;28;46957;-87
2022/08/14 00:29:20;;;;;;;;;8.00;8.00;;;;;25.91;28.10;100000.06;4915740;28;45381;-87
2022/08/14 00:31:46;;;;;;;;;7.00;7.00;;;;;25.88;28.23;99994.78;4931068;28;45557;-87
2022/08/14 00:34:11;;;;;;;;;7.33;7.33;;;;;25.87;28.50;99994.88;4933716;28;44784;-87
2022/08/14 00:36:37;;;;;;;;;6.67;6.67;;;;;25.82;28.54;99995.16;4931868;28;46916;-87
2022/08/14 00:39:03;;;;;;;;;8.00;8.00;;;;;25.79;28.45;99989.88;4916420;28;44741;-87
2022/08/14 00:41:31;;;;;;;;;8.00;8.00;;;;;25.81;29.01;99984.34;4932013;28;45272;-87
2022/08/14 00:43:57;;;;;;;;;9.33;6.33;;;;;25.76;28.55;99984.66;4931727;28;45331;-87
2022/08/14 00:46:22;;;;;;;;;7.00;7.00;;;;;25.74;29.06;99986.59;4930945;28;45604;-87
2022/08/14 00:48:48;;;;;;;;;8.33;8.33;;;;;25.64;29.43;99975.38;4913704;28;45342;-87
2022/08/14 00:51:13;;;;;;;;;7.67;7.67;;;;;25.65;29.78;99988.03;4931576;28;45755;-87
2022/08/14 00:53:39;;;;;;;;;10.67;7.33;;;;;25.60;29.91;99979.25;4915214;28;45388;-87
2022/08/14 00:56:07;;;;;;;;;10.00;9.67;;;;;25.59;30.07;99982.06;4914760;28;46820;-87
2022/08/14 00:58:33;;;;;;;;;9.67;9.67;;;;;25.57;30.57;99987.59;4915194;28;45342;-88
2022/08/14 01:01:04;;;;;;;;;9.33;9.33;;;;;25.45;30.68;99972.91;4934880;28;45371;-88
2022/08/14 01:03:30;;;;;;;;;8.33;8.33;;;;;25.45;31.17;99972.00;4935183;28;44931;-87
2022/08/14 01:05:57;;;;;;;;;11.00;8.67;;;;;25.30;30.82;99961.06;4935196;28;45542;-87
2022/08/14 01:08:26;;;;;;;;;9.67;8.00;;;;;25.32;31.00;99956.41;4918901;28;45240;-87
2022/08/14 01:10:53;;;;;;;;;10.33;10.33;;;;;25.12;31.32;99924.91;4932904;28;45408;-87
2022/08/14 01:13:27;;;;;;;;;11.00;10.00;;;;;25.27;31.31;99947.66;4917475;28;44769;-87
2022/08/14 01:15:56;;;;;;;;;8.33;8.33;;;;;25.26;31.83;99948.59;4930285;28;46748;-87
2022/08/14 01:21:16;;;;;;;;;8.33;8.33;;;;;25.21;31.69;99942.59;4933597;28;45364;-87
2022/08/14 01:23:47;;;;;;;;;9.67;9.67;;;;;25.18;32.27;99936.41;4931742;28;45668;-87
2022/08/14 01:26:15;;;;;;;;;10.00;10.00;;;;;25.17;32.52;99940.97;4919635;28;47417;-87
2022/08/14 01:28:41;;;;;;;;;9.33;9.33;;;;;25.18;32.48;99939.13;4932423;28;45711;-87
2022/08/14 01:31:12;;;;;;;;;10.67;10.67;;;;;25.17;32.59;99935.53;4915109;28;45389;-87
2022/08/14 01:33:43;;;;;;;;;10.50;10.50;;;;;25.10;32.75;99932.28;4918982;28;44797;-86
2022/08/14 01:36:09;;;;;;;;;10.33;10.33;;;;;25.10;32.66;99935.00;4914097;28;48508;-87
2022/08/14 01:38:36;;;;;;;;;11.00;11.00;;;;;25.08;32.67;99941.50;4929764;28;44729;-86
2022/08/14 01:41:06;;;;;;;;;11.00;9.33;;;;;25.10;33.01;99942.28;4914382;28;45248;-86
2022/08/14 01:43:38;;;;;;;;;12.67;11.00;;;;;25.09;32.45;99951.44;4930528;28;44728;-87
2022/08/14 01:46:10;;;;;;;;;10.00;10.00;;;;;25.06;32.66;99947.03;4930400;28;46881;-87
2022/08/14 01:48:35;;;;;;;;;10.67;10.67;;;;;25.05;32.68;99941.72;4916245;28;45163;-87
2022/08/14 01:51:01;;;;;;;;;12.00;10.67;;;;;25.01;32.50;99940.13;4928247;28;45394;-87
2022/08/14 01:53:30;;;;;;;;;9.00;9.00;;;;;25.03;32.52;99938.19;4930809;28;45635;-87
2022/08/14 01:56:03;;;;;;;;;10.00;8.67;;;;;24.99;32.99;99933.91;4945678;28;45740;-88
2022/08/14 01:58:29;;;;;;;;;11.67;11.67;;;;;25.00;32.92;99936.50;4913569;28;44951;-88
2022/08/14 02:00:55;;;;;;;;;10.00;10.00;;;;;24.94;33.00;99932.34;4921922;28;45424;-88
2022/08/14 02:03:24;;;;;;;;;12.00;11.00;;;;;24.91;33.08;99927.06;4913691;28;45374;-88
2022/08/14 02:05:49;;;;;;;;;11.67;11.67;;;;;24.91;32.74;99928.91;4914374;28;47035;-87
2022/08/14 02:08:15;;;;;;;;;10.33;10.33;;;;;24.88;32.83;99935.38;4932131;28;45407;-87
2022/08/14 02:10:42;;;;;;;;;11.33;11.00;;;;;24.86;33.10;99926.44;4914185;28;45412;-87
2022/08/14 02:13:09;;;;;;;;;10.00;10.00;;;;;24.74;33.13;99911.75;4929835;28;45431;-87
2022/08/14 02:15:36;;;;;;;;;11.00;11.00;;;;;24.71;33.40;99908.31;4930213;28;45723;-86
2022/08/14 02:18:03;;;;;;;;;11.33;11.33;;;;;24.68;33.90;99903.03;4915232;28;45435;-86
2022/08/14 02:20:35;;;;;;;;;10.67;10.00;;;;;24.66;33.69;99905.88;4914695;28;44803;-87
2022/08/14 02:23:00;;;;;;;;;11.33;9.33;;;;;24.62;34.07;99890.69;4914908;28;45533;-87
2022/08/14 02:25:29;;;;;;;;;12.00;10.00;;;;;24.60;34.09;99883.56;4913846;28;47878;-87
2022/08/14 02:27:55;;;;;;;;;9.00;9.00;;;;;24.57;34.07;99881.91;4913302;28;45191;-87
2022/08/14 02:30:30;;;;;;;;;9.00;9.00;;;;;24.61;33.83;99882.63;4912817;28;45388;-86
2022/08/14 02:32:56;;;;;;;;;10.33;10.33;;;;;24.59;33.93;99888.13;4913859;28;45360;-86
2022/08/14 02:35:24;;;;;;;;;10.67;10.67;;;;;24.54;34.24;99877.53;4913774;28;47225;-87
2022/08/14 02:37:49;;;;;;;;;9.67;9.67;;;;;24.47;34.25;99869.78;4913818;28;46155;-87
2022/08/14 02:40:20;;;;;;;;;9.00;9.00;;;;;24.52;34.24;99879.47;4914663;28;45797;-87
2022/08/14 02:42:47;;;;;;;;;12.33;11.00;;;;;24.48;33.46;99868.81;4922797;28;45268;-88
2022/08/14 02:45:13;;;;;;;;;9.33;9.33;;;;;24.46;34.34;99868.91;4929972;28;46904;-87
2022/08/14 02:47:41;;;;;;;;;10.67;9.33;;;;;24.46;34.63;99865.31;4917431;28;45537;-86
2022/08/14 02:50:07;;;;;;;;;9.67;9.67;;;;;24.46;34.70;99868.03;4913115;28;45402;-86
2022/08/14 02:59:17;;;;;;;;;12.67;12.00;;;;;24.44;34.62;99859.97;4910260;29;45375;-87
2022/08/14 03:01:44;;;;;;;;;11.00;10.33;;;;;24.41;34.86;99862.84;4892146;29;45370;-88
2022/08/14 03:04:19;;;;;;;;;10.33;9.67;;;;;24.41;35.16;99865.56;4912698;29;44861;-88
2022/08/14 03:06:49;;;;;;;;;10.00;10.00;;;;;24.38;35.05;99864.88;4896781;28;46664;-88
2022/08/14 03:09:15;;;;;;;;;12.33;11.67;;;;;24.34;34.91;99861.47;4897176;29;45029;-87
2022/08/14 03:11:43;;;;;;;;;10.00;10.00;;;;;24.30;35.28;99862.63;4914015;29;45378;-88
2022/08/14 03:14:10;;;;;;;;;12.00;10.67;;;;;24.26;35.10;99864.63;4913432;29;45356;-87
2022/08/14 03:16:37;;;;;;;;;14.67;11.67;;;;;24.25;35.36;99871.00;4896910;29;46741;-88
2022/08/14 03:19:10;;;;;;;;;8.33;8.33;;;;;24.17;35.18;99862.41;4896682;29;45324;-88
2022/08/14 03:21:38;;;;;;;;;12.33;9.67;;;;;24.15;35.63;99859.78;4896539;29;45497;-88
2022/08/14 03:24:10;;;;;;;;;11.67;11.67;;;;;24.10;35.18;99859.16;4912289;29;45518;-87
2022/08/14 03:26:45;;;;;;;;;11.67;11.67;;;;;24.09;35.49;99862.84;4911133;29;46192;-88
2022/08/14 03:29:14;;;;;;;;;12.67;11.67;;;;;24.04;35.97;99851.38;4896841;29;45343;-87
2022/08/14 03:31:40;;;;;;;;;11.33;11.33;;;;;24.08;35.72;99861.09;4913481;29;45292;-88
2022/08/14 03:34:09;;;;;;;;;13.00;13.00;;;;;24.11;36.08;99860.91;4897800;29;45395;-88
2022/08/14 03:36:35;;;;;;;;;15.33;14.00;;;;;24.05;35.64;99852.22;4914115;29;45486;-88
2022/08/14 03:39:06;;;;;;;;;10.33;10.33;;;;;24.08;35.58;99858.38;4895870;28;45500;-88
2022/08/14 03:41:34;;;;;;;;;10.67;9.67;;;;;24.10;35.68;99861.88;4895414;29;45415;-88
2022/08/14 03:44:03;;;;;;;;;12.67;12.00;;;;;24.04;36.09;99856.81;4909992;29;45517;-87
2022/08/14 03:46:34;;;;;;;;;10.67;10.67;;;;;24.10;35.92;99870.03;4910751;29;45561;-87
2022/08/14 03:49:03;;;;;;;;;9.67;9.00;;;;;24.02;35.38;99858.72;4911418;28;45259;-87
2022/08/14 03:51:32;;;;;;;;;10.00;10.00;;;;;24.08;35.94;99874.69;4894205;29;45329;-88
2022/08/14 03:54:06;;;;;;;;;12.00;11.00;;;;;24.07;35.30;99872.03;4894548;29;45311;-88
2022/08/14 03:56:35;;;;;;;;;11.67;11.67;;;;;24.02;36.00;99872.31;4893476;29;48119;-88
2022/08/14 03:59:04;;;;;;;;;10.67;10.33;;;;;23.93;35.71;99872.81;4893985;29;45369;-88
2022/08/14 04:01:33;;;;;;;;;10.33;10.33;;;;;23.94;35.79;99880.00;4894254;29;45277;-87
2022/08/14 04:04:01;;;;;;;;;10.67;9.33;;;;;23.88;35.78;99873.06;4894451;29;45199;-88
2022/08/14 04:06:27;;;;;;;;;12.67;11.00;;;;;23.95;35.87;99888.03;4909166;29;47824;-87
2022/08/14 04:09:28;;;;;;;;;10.00;10.00;;;;;23.94;35.79;99888.16;4909912;29;45932;-88
2022/08/14 04:11:53;;;;;;;;;9.33;9.33;;;;;23.86;35.85;99874.13;4911679;29;45228;-88
2022/08/14 04:14:19;;;;;;;;;10.67;10.67;;;;;23.84;35.83;99881.47;4894627;29;44880;-87
2022/08/14 04:16:46;;;;;;;;;12.33;10.67;;;;;23.88;35.58;99893.91;4908123;28;46801;-88
2022/08/14 04:19:18;;;;;;;;;10.67;10.67;;;;;23.82;35.64;99891.53;4895753;29;45554;-87
2022/08/14 04:21:44;;;;;;;;;13.67;12.33;;;;;23.82;35.58;99895.13;4909754;29;45360;-88
2022/08/14 04:24:12;;;;;;;;;10.67;10.67;;;;;23.80;36.02;99893.47;4908214;29;45590;-88
2022/08/14 04:26:38;;;;;;;;;12.00;12.00;;;;;23.79;35.90;99886.25;4908198;29;45355;-87
2022/08/14 04:29:03;;;;;;;;;11.33;11.33;;;;;23.76;36.20;99879.13;4892921;29;45421;-88
2022/08/14 04:31:29;;;;;;;;;14.33;12.33;;;;;23.74;35.88;99894.63;4893272;29;45418;-88
2022/08/14 04:45:35;;;;;;;;;9.67;9.67;;;;;23.75;35.88;99853.84;4909028;29;45473;-87
2022/08/14 04:48:14;;;;;;;;;9.67;9.67;;;;;23.79;35.53;99861.81;4910193;28;46933;-87
2022/08/14 04:50:46;;;;;;;;;10.00;10.00;;;;;23.78;35.70;99860.09;4897591;29;45383;-86
2022/08/14 04:53:14;;;;;;;;;10.00;9.33;;;;;23.75;35.63;99845.69;4912880;28;44689;-87
2022/08/14 04:55:41;;;;;;;;;10.33;10.33;;;;;23.75;35.96;99842.97;4912074;28;45431;-86
2022/08/14 04:58:08;;;;;;;;;8.67;8.67;;;;;23.76;35.75;99850.13;4913907;28;45803;-86
2022/08/14 05:03:56;;;;;;;;;11.00;10.00;;;;;23.81;35.45;99839.06;4894626;28;44943;-86
2022/08/14 05:06:21;;;;;;;;;12.00;11.33;;;;;23.81;36.23;99840.91;4877016;29;45554;-88
2022/08/14 05:08:47;;;;;;;;;10.00;9.67;;;;;23.74;36.18;99816.78;4892944;28;45380;-88
2022/08/14 05:11:13;;;;;;;;;8.00;8.00;;;;;23.81;35.82;99822.75;4876569;29;45432;-88
2022/08/14 05:13:39;;;;;;;;;10.33;10.33;;;;;23.81;35.77;99825.47;4877187;29;45801;-88
2022/08/14 05:16:06;;;;;;;;;9.67;8.67;;;;;23.82;36.26;99820.94;4893109;28;45734;-87
2022/08/14 05:18:34;;;;;;;;;9.67;9.67;;;;;23.85;35.86;99829.78;4894691;29;46443;-88
2022/08/14 05:21:05;;;;;;;;;9.00;9.00;;;;;23.86;36.25;99831.53;4877022;29;45407;-87
2022/08/14 05:23:33;;;;;;;;;16.33;16.33;;;;;23.79;36.38;99830.13;4893299;28;45785;-88
2022/08/14 05:26:01;;;;;;;;;11.33;10.33;;;;;23.82;36.09;99850.81;4894233;29;44734;-87
2022/08/14 05:28:32;;;;;;;;;11.67;10.67;;;;;23.85;36.48;99858.78;4894261;29;45575;-87
2022/08/14 05:31:00;;;;;;;;;9.00;9.00;;;;;23.72;36.44;99824.13;4909754;29;45847;-88
2022/08/14 05:33:27;;;;;;;;;8.33;8.33;;;;;23.90;36.53;99854.84;4905054;29;45418;-88
2022/08/14 05:36:01;;;;;;;;;11.00;10.67;;;;;23.93;36.00;99861.94;4906867;29;45311;-88
2022/08/14 05:38:32;;;;;;;;;10.67;10.67;;;;;23.90;36.61;99854.84;4893359;29;46310;-88
2022/08/14 05:41:14;;;;;;;;;9.67;9.67;;;;;23.96;36.33;99862.66;4892115;29;44698;-88
2022/08/14 05:43:41;;;;;;;;;9.00;9.00;;;;;24.01;36.72;99845.22;4893515;28;44735;-88
2022/08/14 05:46:10;;;;;;;;;10.00;10.00;;;;;24.04;36.11;99832.34;4892796;29;45279;-88
2022/08/14 05:48:53;;;;;;;;;9.67;9.67;;;;;24.12;36.20;99832.78;4877492;29;47299;-87
2022/08/14 05:51:20;;;;;;;;;10.00;10.00;;;;;24.24;35.37;99825.78;4893067;28;45500;-87
2022/08/14 05:53:46;;;;;;;;;9.33;9.33;;;;;24.32;35.92;99811.78;4878930;29;44822;-87
2022/08/14 05:56:12;;;;;;;;;9.33;9.00;;;;;24.39;35.49;99820.44;4877932;29;45898;-88
2022/08/14 05:58:44;;;;;;;;;8.33;8.33;;;;;24.45;35.80;99817.34;4877237;29;47646;-87
2022/08/14 06:01:17;;;;;;;;;7.67;7.67;;;;;24.51;35.93;99804.31;4875503;29;45722;-88
2022/08/14 06:03:43;;;;;;;;;10.00;10.00;;;;;24.58;35.22;99825.69;4875593;29;45315;-87
2022/08/14 06:06:08;;;;;;;;;8.67;8.67;;;;;24.63;35.37;99796.41;4876196;29;45370;-87
2022/08/14 06:08:37;;;;;;;;;9.00;9.00;;;;;24.72;35.14;99809.44;4891973;28;46143;-87
2022/08/14 06:11:05;;;;;;;;;9.67;8.67;;;;;24.80;35.29;99838.91;4890015;29;45736;-87
2022/08/14 06:13:39;;;;;;;;;10.33;10.33;;;;;24.90;34.98;99819.22;4902766;29;45332;-87
2022/08/14 06:16:06;;;;;;;;;10.33;9.00;;;;;24.83;35.25;99816.97;4892282;28;45240;-87
2022/08/14 06:18:35;;;;;;;;;9.67;9.67;;;;;24.69;35.31;99831.38;4891972;29;45490;-87
2022/08/14 06:21:02;;;;;;;;;8.33;8.33;;;;;24.67;35.49;99817.00;4892348;28;45375;-87
2022/08/14 06:23:28;;;;;;;;;10.00;9.33;;;;;24.64;35.58;99819.91;4900524;28;45425;-87
2022/08/14 06:29:16;;;;;;;;;10.00;10.00;;;;;24.73;35.23;99816.66;4909978;28;45748;-88
2022/08/14 06:31:45;;;;;;;;;8.00;8.00;;;;;24.74;35.65;99800.25;4909215;29;45411;-87
2022/08/14 06:34:10;;;;;;;;;7.67;7.67;;;;;24.85;35.49;99804.16;4909974;29;45364;-88
2022/08/14 06:36:37;;;;;;;;;12.00;10.67;;;;;24.93;35.42;99821.75;4910603;29;45428;-88
2022/08/14 06:39:03;;;;;;;;;9.67;9.67;;;;;24.85;35.18;99801.44;4908874;29;46255;-87
2022/08/14 06:41:28;;;;;;;;;9.00;9.00;;;;;24.87;35.16;99803.09;4891763;29;45370;-88
2022/08/14 06:43:54;;;;;;;;;8.33;8.33;;;;;24.90;35.08;99816.50;4923383;28;45457;-87
2022/08/14 06:46:19;;;;;;;;;8.67;8.67;;;;;24.94;35.47;99828.97;4893294;29;45401;-87
2022/08/14 06:48:48;;;;;;;;;12.67;10.67;;;;;24.86;35.55;99823.09;4908621;29;47064;-87
2022/08/14 06:51:13;;;;;;;;;12.67;12.67;;;;;24.87;35.40;99835.72;4908591;28;44870;-88
2022/08/14 06:53:39;;;;;;;;;11.33;10.00;;;;;24.90;35.33;99840.09;4909762;28;44859;-88
2022/08/14 06:56:04;;;;;;;;;13.00;10.00;;;;;24.87;35.78;99835.72;4892941;29;45280;-88
2022/08/14 06:58:30;;;;;;;;;9.33;9.00;;;;;24.91;35.96;99848.19;4891025;29;48248;-88
2022/08/14 07:06:23;;;;;;;;;9.00;9.00;;;;;25.01;35.25;99844.91;4908643;29;44876;-88
2022/08/14 07:08:50;;;;;;;;;8.33;8.00;;;;;25.07;34.76;99841.81;4891995;29;46901;-88
2022/08/14 07:11:16;;;;;;;;;8.00;6.67;;;;;25.14;34.88;99845.91;4902740;29;45314;-88
2022/08/14 07:13:42;;;;;;;;;7.00;7.00;;;;;25.22;34.76;99843.63;4908913;29;45347;-87
2022/08/14 07:16:11;;;;;;;;;5.67;5.67;;;;;25.22;34.41;99835.47;4901081;29;45380;-88
2022/08/14 07:18:38;;;;;;;;;5.00;5.00;;;;;25.25;34.18;99828.94;4910059;29;46205;-87
2022/08/14 07:21:05;;;;;;;;;7.00;7.00;;;;;25.34;33.76;99842.00;4909589;29;45440;-88
2022/08/14 07:23:34;;;;;;;;;6.67;6.67;;;;;25.37;34.16;99833.66;4895643;29;45237;-88
2022/08/14 07:26:03;;;;;;;;;6.67;5.67;;;;;25.53;34.01;99848.06;4910131;29;44829;-88
2022/08/14 07:28:32;;;;;;;;;10.67;9.00;;;;;25.61;33.70;99831.25;4892776;28;45467;-88
2022/08/14 07:30:58;;;;;;;;;5.67;5.67;;;;;25.83;33.66;99847.09;4894508;28;45582;-88
2022/08/14 07:33:26;;;;;;;;;6.67;6.67;;;;;25.94;33.40;99843.72;4909034;29;44863;-87
2022/08/14 07:35:53;;;;;;;;;6.33;6.33;;;;;26.11;32.98;99835.31;4911854;28;44893;-88
2022/08/14 07:38:21;;;;;;;;;6.33;6.33;;;;;26.27;33.32;99828.88;4910141;28;47257;-87
2022/08/14 07:40:54;;;;;;;;;7.67;7.67;;;;;26.60;32.49;99838.53;4911515;29;45303;-89
2022/08/14 07:43:21;;;;;;;;;6.00;6.00;;;;;26.84;32.37;99842.34;4894940;29;44858;-87
2022/08/14 07:45:46;;;;;;;;;7.00;5.33;;;;;27.08;31.44;99847.09;4878066;29;45365;-87
2022/08/14 07:48:12;;;;;;;;;5.67;5.67;;;;;27.30;31.46;99850.13;4911527;28;46841;-87
2022/08/14 07:50:38;;;;;;;;;6.00;6.00;;;;;27.42;30.96;99847.53;4910911;29;44912;-87
2022/08/14 07:53:05;;;;;;;;;6.00;6.00;;;;;27.43;30.44;99821.94;4914853;28;45244;-87
2022/08/14 07:55:31;;;;;;;;;6.33;6.33;;;;;27.67;30.61;99833.88;4896740;28;45308;-87
2022/08/14 07:57:57;;;;;;;;;5.00;5.00;;;;;27.76;30.23;99815.94;4913804;28;45366;-88
2022/08/14 08:00:27;;;;;;;;;4.33;4.33;;;;;27.87;29.80;99802.41;4913310;28;45381;-87
2022/08/14 08:02:54;;;;;;;;;6.33;6.33;;;;;28.04;29.82;99813.97;4914267;28;45195;-87
2022/08/14 08:05:23;;;;;;;;;6.33;6.33;;;;;28.19;29.73;99820.16;4914246;28;45845;-87
2022/08/14 08:07:49;;;;;;;;;8.33;6.67;;;;;28.14;29.36;99804.09;4897302;28;47094;-87
2022/08/14 08:10:30;;;;;;;;;9.67;8.00;;;;;28.23;29.61;99829.88;4913304;29;45371;-87
2022/08/14 08:12:59;;;;;;;;;7.67;7.67;;;;;28.12;29.12;99817.00;4914516;28;45501;-87
2022/08/14 08:15:27;;;;;;;;;7.00;7.00;;;;;28.32;29.34;99837.41;4913114;28;45665;-87
2022/08/14 08:17:53;;;;;;;;;6.00;6.00;;;;;28.34;29.22;99827.22;4897525;28;46988;-87
2022/08/14 08:20:24;;;;;;;;;8.00;7.33;;;;;28.49;29.03;99833.41;4914107;29;45228;-87
2022/08/14 08:22:50;;;;;;;;;7.00;7.00;;;;;28.63;29.09;99837.88;4912997;28;45352;-87
2022/08/14 08:25:19;;;;;;;;;6.00;6.00;;;;;28.53;29.30;99810.34;4896676;28;45470;-87
2022/08/14 08:27:58;;;;;;;;;5.67;5.67;;;;;28.69;29.03;99831.94;4913428;28;45697;-88
2022/08/14 08:30:25;;;;;;;;;6.67;6.67;;;;;28.66;28.42;99816.63;4920359;28;45485;-87
2022/08/14 08:32:53;;;;;;;;;6.33;6.00;;;;;28.80;28.30;99826.50;4911906;28;45286;-87
2022/08/14 08:35:22;;;;;;;;;4.33;4.33;;;;;28.95;28.31;99842.75;4911807;28;44819;-87
2022/08/14 08:37:48;;;;;;;;;7.33;6.00;;;;;29.09;28.36;99831.59;4895815;28;47302;-87
2022/08/14 08:40:26;;;;;;;;;6.00;6.00;;;;;29.24;28.61;99838.63;4912062;28;45346;-87
2022/08/14 08:42:52;;;;;;;;;7.00;7.00;;;;;29.41;29.15;99840.06;4913391;28;45328;-87
2022/08/14 08:45:19;;;;;;;;;7.33;7.33;;;;;29.55;29.42;99852.69;4912864;28;45384;-87
2022/08/14 08:47:46;;;;;;;;;9.00;9.00;;;;;29.62;29.43;99851.19;4923836;28;47336;-87
2022/08/14 08:50:31;;;;;;;;;11.00;11.00;;;;;29.66;29.57;99843.59;4912920;28;45325;-87
2022/08/14 08:53:03;;;;;;;;;8.33;8.33;;;;;29.68;29.98;99850.69;4896173;28;45819;-87
2022/08/14 08:55:28;;;;;;;;;8.33;6.67;;;;;29.78;30.20;99847.25;4911052;28;45386;-88
2022/08/14 08:57:55;;;;;;;;;10.00;8.00;;;;;29.71;30.38;99846.84;4911652;28;45200;-87
2022/08/14 09:00:24;;;;;;;;;9.33;9.33;;;;;29.54;30.59;99839.09;4909892;28;45878;-87
2022/08/14 09:06:13;;;;;;;;;5.00;5.00;;;;;28.85;31.82;99815.22;4914281;28;45435;-87
2022/08/14 09:08:44;;;;;;;;;3.67;3.67;;;;;28.67;32.45;99801.06;4914720;28;45815;-87
2022/08/14 09:11:11;;;;;;;;;3.00;3.00;;;;;28.63;32.73;99813.25;4897344;28;44840;-87
2022/08/14 09:13:36;;;;;;;;;7.00;7.00;;;;;28.58;33.06;99807.25;4897427;28;45419;-88
2022/08/14 09:16:02;;;;;;;;;5.00;5.00;;;;;28.67;32.98;99814.75;4905719;28;45565;-87
2022/08/14 09:18:27;;;;;;;;;8.00;8.00;;;;;28.86;32.85;99836.97;4911452;28;45482;-88
2022/08/14 09:20:55;;;;;;;;;11.33;9.00;;;;;28.90;33.01;99822.09;4910407;29;45513;-87
2022/08/14 09:23:22;;;;;;;;;6.00;6.00;;;;;28.92;33.08;99821.94;4910481;28;45380;-87
2022/08/14 09:25:49;;;;;;;;;7.00;5.33;;;;;28.95;32.75;99820.84;4910634;28;45262;-87
2022/08/14 09:28:17;;;;;;;;;6.67;6.00;;;;;28.92;32.86;99798.22;4895773;28;46747;-87
2022/08/14 09:31:02;;;;;;;;;3.00;2.33;;;;;28.89;33.27;99790.22;4894548;28;45386;-88
2022/08/14 09:33:30;;;;;;;;;5.33;5.33;;;;;29.00;32.51;99807.66;4910541;28;44846;-87
2022/08/14 09:36:29;;;;;;;;;6.00;6.00;;;;;29.10;32.35;99803.22;4894957;29;45665;-87
2022/08/14 09:39:45;;;;;;;;;5.00;3.33;;;;;29.26;32.72;99811.13;4909197;28;46984;-87
2022/08/14 09:42:39;;;;;;;;;5.33;5.33;;;;;29.35;32.48;99815.91;4895335;28;45456;-87
2022/08/14 09:45:16;;;;;;;;;5.33;5.33;;;;;29.53;32.29;99827.22;4895593;29;45417;-88
2022/08/14 09:47:52;;;;;;;;;6.00;6.00;;;;;29.64;31.85;99813.56;4895060;28;44805;-88
2022/08/14 09:50:29;;;;;;;;;5.67;5.67;;;;;29.79;31.90;99827.06;4913804;28;45467;-88
2022/08/14 09:53:07;;;;;;;;;4.00;4.00;;;;;30.02;32.00;99819.72;4912618;28;45431;-88
2022/08/14 09:55:35;;;;;;;;;3.67;3.67;;;;;30.22;31.61;99807.97;4897418;28;45296;-88
2022/08/14 09:58:17;;;;;;;;;7.67;6.67;;;;;30.48;31.04;99824.13;4914144;28;45307;-88
2022/08/14 10:00:59;;;;;;;;;5.67;5.33;;;;;30.56;31.08;99818.00;4912856;28;46713;-88
2022/08/14 10:03:33;;;;;;;;;7.33;5.33;;;;;30.54;31.12;99811.78;4895954;28;45792;-88
2022/08/14 10:06:17;;;;;;;;;6.33;5.33;;;;;30.51;31.11;99800.06;4896133;28;45471;-88
2022/08/14 10:08:45;;;;;;;;;7.00;5.00;;;;;30.66;31.03;99811.63;4906651;28;45332;-88
2022/08/14 10:11:35;;;;;;;;;5.00;5.00;;;;;30.68;30.90;99808.72;4910904;28;45495;-87
2022/08/14 10:14:18;;;;;;;;;4.00;4.00;;;;;30.64;30.82;99801.75;4911762;28;45326;-88
2022/08/14 10:16:47;;;;;;;;;5.00;5.00;;;;;30.63;31.57;99811.00;4910843;28;44702;-88
2022/08/14 10:19:15;;;;;;;;;6.00;5.00;;;;;30.79;31.47;99802.34;4912131;28;45327;-88
2022/08/14 10:21:42;;;;;;;;;4.67;4.67;;;;;30.90;31.00;99794.06;4911050;28;45401;-88
2022/08/14 10:24:31;;;;;;;;;5.67;5.00;;;;;31.07;30.59;99795.38;4904492;28;45233;-88
2022/08/14 10:26:59;;;;;;;;;5.00;5.00;;;;;31.04;31.22;99802.00;4924573;28;44760;-88
2022/08/14 10:29:37;;;;;;;;;5.67;5.67;;;;;30.89;30.41;99795.97;4911355;28;45343;-88
2022/08/14 10:32:04;;;;;;;;;4.67;4.67;;;;;30.74;30.64;99799.09;4908386;28;46967;-88
2022/08/14 10:34:32;;;;;;;;;5.33;5.33;;;;;30.66;30.86;99794.28;4894291;28;45534;-87
2022/08/14 10:37:06;;;;;;;;;6.00;6.00;;;;;30.72;30.27;99799.22;4909821;28;45513;-87
2022/08/14 10:39:32;;;;;;;;;7.00;7.00;;;;;30.68;30.20;99808.72;4909709;28;44788;-87
2022/08/14 10:42:12;;;;;;;;;5.00;5.00;;;;;30.70;30.13;99799.38;4893767;28;48660;-87
2022/08/14 10:44:47;;;;;;;;;4.00;4.00;;;;;30.85;30.39;99810.06;4921808;28;46382;-87
2022/08/14 10:47:17;;;;;;;;;3.00;3.00;;;;;30.97;29.91;99810.91;4910823;28;45305;-87
2022/08/14 10:49:56;;;;;;;;;5.67;5.67;;;;;31.12;29.97;99819.69;4912403;28;45770;-86
2022/08/14 10:52:59;;;;;;;;;8.00;7.33;;;;;31.28;30.49;99823.69;4895508;28;47099;-87
2022/08/14 10:55:38;;;;;;;;;5.00;5.00;;;;;31.43;29.88;99824.25;4910761;28;45322;-87
2022/08/14 10:58:12;;;;;;;;;3.00;3.00;;;;;31.54;29.69;99822.47;4895337;28;45193;-87
2022/08/14 11:00:52;;;;;;;;;5.33;5.00;;;;;31.64;29.71;99821.50;4911627;28;45506;-87
2022/08/14 11:03:17;;;;;;;;;6.67;6.67;;;;;31.48;30.07;99812.88;4911882;28;45442;-87
2022/08/14 11:05:51;;;;;;;;;6.67;6.67;;;;;31.46;30.18;99817.66;4894510;28;45402;-87
2022/08/14 11:08:29;;;;;;;;;6.33;6.33;;;;;31.50;29.61;99817.22;4911649;28;45364;-88
2022/08/14 11:10:59;;;;;;;;;6.00;5.00;;;;;31.37;29.96;99813.81;4925506;28;44933;-87
2022/08/14 11:13:27;;;;;;;;;5.67;5.67;;;;;31.33;30.16;99814.19;4909476;28;47223;-87
2022/08/14 11:15:56;;;;;;;;;7.00;7.00;;;;;31.30;30.05;99816.19;4893659;28;45752;-87
2022/08/14 11:18:22;;;;;;;;;8.00;8.00;;;;;31.23;30.17;99830.63;4893317;28;45384;-87
2022/08/14 11:20:54;;;;;;;;;5.67;5.67;;;;;31.16;30.38;99827.53;4921515;28;45356;-87
2022/08/14 11:23:25;;;;;;;;;6.00;6.00;;;;;31.19;30.69;99823.66;4907799;28;47054;-87
2022/08/14 11:25:51;;;;;;;;;4.67;4.67;;;;;31.24;30.50;99827.72;4911778;29;45464;-87
2022/08/14 11:28:22;;;;;;;;;5.00;5.00;;;;;31.30;30.83;99829.94;4913210;28;45476;-87
2022/08/14 11:30:50;;;;;;;;;8.00;7.00;;;;;31.28;30.47;99814.59;4897325;28;45526;-87
2022/08/14 11:33:21;;;;;;;;;6.00;6.00;;;;;31.24;29.96;99830.47;4909973;29;45411;-87
2022/08/14 11:35:47;;;;;;;;;7.00;7.00;;;;;31.23;30.15;99831.50;4892632;29;45357;-87
2022/08/14 11:38:12;;;;;;;;;5.67;5.67;;;;;31.19;30.46;99816.28;4893155;29;45311;-87
2022/08/14 11:40:42;;;;;;;;;5.67;5.00;;;;;31.24;30.73;99826.88;4910010;29;45288;-87
2022/08/14 11:43:10;;;;;;;;;7.00;7.00;;;;;31.22;30.72;99823.38;4910938;29;45493;-87
2022/08/14 11:45:38;;;;;;;;;6.33;6.33;;;;;31.24;30.67;99824.97;4910925;29;45359;-87
2022/08/14 11:48:21;;;;;;;;;8.00;8.00;;;;;31.28;30.40;99825.59;4909088;29;45267;-87
2022/08/14 11:50:48;;;;;;;;;7.00;7.00;;;;;31.27;30.75;99827.47;4892940;29;44737;-87
2022/08/14 11:53:27;;;;;;;;;7.00;5.67;;;;;31.21;30.34;99811.53;4908257;29;46738;-87
2022/08/14 11:56:03;;;;;;;;;6.00;6.00;;;;;31.35;30.60;99836.91;4908735;29;45480;-87
2022/08/14 11:58:32;;;;;;;;;5.67;5.00;;;;;31.34;30.17;99844.28;4908803;29;45521;-87
2022/08/14 12:01:08;;;;;;;;;7.00;7.00;;;;;31.36;31.56;99839.53;4908746;29;45532;-87
2022/08/14 12:03:45;;;;;;;;;9.33;7.33;;;;;31.30;33.01;99846.41;4909490;28;48141;-88
2022/08/14 12:06:16;;;;;;;;;8.33;7.00;;;;;31.19;34.13;99843.75;4912717;28;44809;-87
2022/08/14 12:12:18;;;;;;;;;10.33;10.00;;;;;30.89;36.39;99839.03;4912582;28;45263;-88
2022/08/14 12:14:58;;;;;;;;;6.67;6.67;;;;;30.71;36.58;99836.78;4911988;28;45808;-87
2022/08/14 12:17:25;;;;;;;;;8.33;8.33;;;;;30.56;36.96;99842.69;4899474;28;45476;-88